sensor_id;sensor_type;location;lat;lon;timestamp;P1;durP1;ratioP1;P2;durP2;ratioP2
41721;SDS011;27407;24.142;-110.310;2023-12-20T00:00:28;29.95;;;3.65;;
41721;SDS011;27407;24.142;-110.310;2023-12-20T00:02:55;25.63;;;3.42;;
41721;SDS011;27407;24.142;-110.310;2023-12-20T00:05:21;20.05;;;3.40;;
41721;SDS011;27407;24.142;-110.310;2023-12-20T00:07:48;19.73;;;2.85;;
41721;SDS011;27407;24.142;-110.310;2023-12-20T00:10:14;21.05;;;3.60;;
41721;SDS011;27407;24.142;-110.310;2023-12-20T00:12:41;33.10;;;3.78;;
41721;SDS011;27407;24.142;-110.310;2023-12-20T00:15:08;24.10;;;2.55;;
41721;SDS011;27407;24.142;-110.310;2023-12-20T00:17:34;34.65;;;3.70;;
41721;SDS011;27407;24.142;-110.310;2023-12-20T00:20:01;25.83;;;2.83;;
41721;SDS011;27407;24.142;-110.310;2023-12-20T00:22:28;25.98;;;2.25;;
41721;SDS011;27407;24.142;-110.310;2023-12-20T00:24:54;27.80;;;2.58;;
41721;SDS011;27407;24.142;-110.310;2023-12-20T00:27:21;10.02;;;2.47;;
41721;SDS011;27407;24.142;-110.310;2023-12-20T00:29:48;38.72;;;4.43;;
41721;SDS011;27407;24.142;-110.310;2023-12-20T00:32:15;47.10;;;3.72;;
41721;SDS011;27407;24.142;-110.310;2023-12-20T00:34:43;18.92;;;3.00;;
41721;SDS011;27407;24.142;-110.310;2023-12-20T00:37:10;42.85;;;3.67;;
41721;SDS011;27407;24.142;-110.310;2023-12-20T00:39:36;26.50;;;3.65;;
41721;SDS011;27407;24.142;-110.310;2023-12-20T00:42:03;25.75;;;3.45;;
41721;SDS011;27407;24.142;-110.310;2023-12-20T00:44:30;40.00;;;4.50;;
41721;SDS011;27407;24.142;-110.310;2023-12-20T00:46:57;55.45;;;6.00;;
41721;SDS011;27407;24.142;-110.310;2023-12-20T00:49:23;233.70;;;14.05;;
41721;SDS011;27407;24.142;-110.310;2023-12-20T00:51:50;153.88;;;10.23;;
41721;SDS011;27407;24.142;-110.310;2023-12-20T00:54:18;126.57;;;10.13;;
41721;SDS011;27407;24.142;-110.310;2023-12-20T00:56:44;88.18;;;8.60;;
41721;SDS011;27407;24.142;-110.310;2023-12-20T00:59:11;53.35;;;5.18;;
41721;SDS011;27407;24.142;-110.310;2023-12-20T01:01:38;46.00;;;4.45;;
41721;SDS011;27407;24.142;-110.310;2023-12-20T01:04:04;51.78;;;5.22;;
41721;SDS011;27407;24.142;-110.310;2023-12-20T01:06:31;42.38;;;5.55;;
41721;SDS011;27407;24.142;-110.310;2023-12-20T01:08:58;44.58;;;6.20;;
41721;SDS011;27407;24.142;-110.310;2023-12-20T01:11:24;23.92;;;4.95;;
41721;SDS011;27407;24.142;-110.310;2023-12-20T01:13:51;33.92;;;5.50;;
41721;SDS011;27407;24.142;-110.310;2023-12-20T01:16:17;37.63;;;4.78;;
41721;SDS011;27407;24.142;-110.310;2023-12-20T01:18:44;31.45;;;5.40;;
41721;SDS011;27407;24.142;-110.310;2023-12-20T01:21:11;59.65;;;5.65;;
41721;SDS011;27407;24.142;-110.310;2023-12-20T01:23:38;31.73;;;5.55;;
41721;SDS011;27407;24.142;-110.310;2023-12-20T01:26:04;26.15;;;4.72;;
41721;SDS011;27407;24.142;-110.310;2023-12-20T01:28:31;29.20;;;5.22;;
41721;SDS011;27407;24.142;-110.310;2023-12-20T01:30:58;97.28;;;8.75;;
41721;SDS011;27407;24.142;-110.310;2023-12-20T01:33:24;58.25;;;6.45;;
41721;SDS011;27407;24.142;-110.310;2023-12-20T01:35:51;63.40;;;6.25;;
41721;SDS011;27407;24.142;-110.310;2023-12-20T01:38:17;59.00;;;5.38;;
41721;SDS011;27407;24.142;-110.310;2023-12-20T01:40:45;51.70;;;4.95;;
41721;SDS011;27407;24.142;-110.310;2023-12-20T01:43:12;79.53;;;6.03;;
41721;SDS011;27407;24.142;-110.310;2023-12-20T01:45:39;83.93;;;11.35;;
41721;SDS011;27407;24.142;-110.310;2023-12-20T01:48:06;75.30;;;10.43;;
41721;SDS011;27407;24.142;-110.310;2023-12-20T01:50:34;40.53;;;6.43;;
41721;SDS011;27407;24.142;-110.310;2023-12-20T01:53:03;106.70;;;11.05;;
41721;SDS011;27407;24.142;-110.310;2023-12-20T02:06:23;37.97;;;5.72;;
41721;SDS011;27407;24.142;-110.310;2023-12-20T02:08:54;104.43;;;13.27;;
41721;SDS011;27407;24.142;-110.310;2023-12-20T02:11:20;92.35;;;7.88;;
41721;SDS011;27407;24.142;-110.310;2023-12-20T02:13:47;73.30;;;6.63;;
41721;SDS011;27407;24.142;-110.310;2023-12-20T02:16:14;52.83;;;5.78;;
41721;SDS011;27407;24.142;-110.310;2023-12-20T02:18:42;80.28;;;6.03;;
41721;SDS011;27407;24.142;-110.310;2023-12-20T02:21:09;51.67;;;5.53;;
41721;SDS011;27407;24.142;-110.310;2023-12-20T02:23:36;56.50;;;5.00;;
41721;SDS011;27407;24.142;-110.310;2023-12-20T02:26:03;47.10;;;5.88;;
41721;SDS011;27407;24.142;-110.310;2023-12-20T02:28:31;48.80;;;5.70;;
41721;SDS011;27407;24.142;-110.310;2023-12-20T02:30:59;37.17;;;5.40;;
41721;SDS011;27407;24.142;-110.310;2023-12-20T02:33:25;64.15;;;7.00;;
41721;SDS011;27407;24.142;-110.310;2023-12-20T02:35:52;52.70;;;5.72;;
41721;SDS011;27407;24.142;-110.310;2023-12-20T02:38:19;53.33;;;6.90;;
41721;SDS011;27407;24.142;-110.310;2023-12-20T02:40:45;38.55;;;5.38;;
41721;SDS011;27407;24.142;-110.310;2023-12-20T02:43:12;48.92;;;5.47;;
41721;SDS011;27407;24.142;-110.310;2023-12-20T02:45:38;53.43;;;5.43;;
41721;SDS011;27407;24.142;-110.310;2023-12-20T02:48:05;49.70;;;4.50;;
41721;SDS011;27407;24.142;-110.310;2023-12-20T02:50:32;43.42;;;5.03;;
41721;SDS011;27407;24.142;-110.310;2023-12-20T02:52:58;56.20;;;5.43;;
41721;SDS011;27407;24.142;-110.310;2023-12-20T02:55:25;38.72;;;4.85;;
41721;SDS011;27407;24.142;-110.310;2023-12-20T02:57:52;57.83;;;5.80;;
41721;SDS011;27407;24.142;-110.310;2023-12-20T03:00:18;78.95;;;8.30;;
41721;SDS011;27407;24.142;-110.310;2023-12-20T03:02:45;65.93;;;6.23;;
41721;SDS011;27407;24.142;-110.310;2023-12-20T03:05:11;80.40;;;8.07;;
41721;SDS011;27407;24.142;-110.310;2023-12-20T03:07:38;49.10;;;5.90;;
41721;SDS011;27407;24.142;-110.310;2023-12-20T03:10:05;56.40;;;6.68;;
41721;SDS011;27407;24.142;-110.310;2023-12-20T03:12:33;65.20;;;7.73;;
41721;SDS011;27407;24.142;-110.310;2023-12-20T03:15:00;37.43;;;6.10;;
41721;SDS011;27407;24.142;-110.310;2023-12-20T03:17:26;37.70;;;5.30;;
41721;SDS011;27407;24.142;-110.310;2023-12-20T03:19:53;51.37;;;7.43;;
41721;SDS011;27407;24.142;-110.310;2023-12-20T03:22:19;38.40;;;4.87;;
41721;SDS011;27407;24.142;-110.310;2023-12-20T03:24:46;40.10;;;5.10;;
41721;SDS011;27407;24.142;-110.310;2023-12-20T03:27:13;39.37;;;5.30;;
41721;SDS011;27407;24.142;-110.310;2023-12-20T03:29:39;38.70;;;5.60;;
41721;SDS011;27407;24.142;-110.310;2023-12-20T03:32:06;22.73;;;5.67;;
41721;SDS011;27407;24.142;-110.310;2023-12-20T03:34:34;47.40;;;6.00;;
41721;SDS011;27407;24.142;-110.310;2023-12-20T03:37:00;35.13;;;6.05;;
41721;SDS011;27407;24.142;-110.310;2023-12-20T03:39:27;42.60;;;4.87;;
41721;SDS011;27407;24.142;-110.310;2023-12-20T03:41:53;21.70;;;3.83;;
41721;SDS011;27407;24.142;-110.310;2023-12-20T03:44:20;23.30;;;4.00;;
41721;SDS011;27407;24.142;-110.310;2023-12-20T03:46:47;24.53;;;3.93;;
41721;SDS011;27407;24.142;-110.310;2023-12-20T03:49:14;28.23;;;3.97;;
41721;SDS011;27407;24.142;-110.310;2023-12-20T03:51:41;38.40;;;3.60;;
41721;SDS011;27407;24.142;-110.310;2023-12-20T04:13:16;24.20;;;3.30;;
41721;SDS011;27407;24.142;-110.310;2023-12-20T04:15:43;18.00;;;2.77;;
41721;SDS011;27407;24.142;-110.310;2023-12-20T04:18:10;10.50;;;2.00;;
41721;SDS011;27407;24.142;-110.310;2023-12-20T04:20:36;19.40;;;3.40;;
41721;SDS011;27407;24.142;-110.310;2023-12-20T04:23:03;28.93;;;3.53;;
41721;SDS011;27407;24.142;-110.310;2023-12-20T04:25:30;33.33;;;3.67;;
41721;SDS011;27407;24.142;-110.310;2023-12-20T04:27:56;29.00;;;3.47;;
41721;SDS011;27407;24.142;-110.310;2023-12-20T04:30:23;27.73;;;3.13;;
41721;SDS011;27407;24.142;-110.310;2023-12-20T04:32:49;26.03;;;3.37;;
41721;SDS011;27407;24.142;-110.310;2023-12-20T04:35:16;10.17;;;2.27;;
41721;SDS011;27407;24.142;-110.310;2023-12-20T04:37:43;21.70;;;3.60;;
41721;SDS011;27407;24.142;-110.310;2023-12-20T04:40:09;37.33;;;3.67;;
41721;SDS011;27407;24.142;-110.310;2023-12-20T04:42:36;18.67;;;4.00;;
41721;SDS011;27407;24.142;-110.310;2023-12-20T04:45:03;12.37;;;3.50;;
41721;SDS011;27407;24.142;-110.310;2023-12-20T04:47:30;22.30;;;5.00;;
41721;SDS011;27407;24.142;-110.310;2023-12-20T04:49:57;27.30;;;5.27;;
41721;SDS011;27407;24.142;-110.310;2023-12-20T04:52:24;24.73;;;4.37;;
41721;SDS011;27407;24.142;-110.310;2023-12-20T04:54:51;8.73;;;2.17;;
41721;SDS011;27407;24.142;-110.310;2023-12-20T04:57:17;9.17;;;2.60;;
41721;SDS011;27407;24.142;-110.310;2023-12-20T04:59:44;16.40;;;3.37;;
41721;SDS011;27407;24.142;-110.310;2023-12-20T05:02:11;13.73;;;2.20;;
41721;SDS011;27407;24.142;-110.310;2023-12-20T05:04:37;18.43;;;2.30;;
41721;SDS011;27407;24.142;-110.310;2023-12-20T05:07:04;18.87;;;2.80;;
41721;SDS011;27407;24.142;-110.310;2023-12-20T05:09:31;7.03;;;2.10;;
41721;SDS011;27407;24.142;-110.310;2023-12-20T05:11:57;12.30;;;2.10;;
41721;SDS011;27407;24.142;-110.310;2023-12-20T05:14:24;10.37;;;1.60;;
41721;SDS011;27407;24.142;-110.310;2023-12-20T05:16:51;12.87;;;1.97;;
41721;SDS011;27407;24.142;-110.310;2023-12-20T05:19:18;22.70;;;3.43;;
41721;SDS011;27407;24.142;-110.310;2023-12-20T05:21:44;13.93;;;1.83;;
41721;SDS011;27407;24.142;-110.310;2023-12-20T05:24:11;10.17;;;1.23;;
41721;SDS011;27407;24.142;-110.310;2023-12-20T05:26:37;9.77;;;1.67;;
41721;SDS011;27407;24.142;-110.310;2023-12-20T05:29:04;9.23;;;1.30;;
41721;SDS011;27407;24.142;-110.310;2023-12-20T05:31:31;14.23;;;2.17;;
41721;SDS011;27407;24.142;-110.310;2023-12-20T05:33:58;12.27;;;1.67;;
41721;SDS011;27407;24.142;-110.310;2023-12-20T05:36:24;14.60;;;1.83;;
41721;SDS011;27407;24.142;-110.310;2023-12-20T05:38:51;9.33;;;1.83;;
41721;SDS011;27407;24.142;-110.310;2023-12-20T05:41:18;9.53;;;1.97;;
41721;SDS011;27407;24.142;-110.310;2023-12-20T05:43:47;15.07;;;1.40;;
41721;SDS011;27407;24.142;-110.310;2023-12-20T05:46:13;7.03;;;1.33;;
41721;SDS011;27407;24.142;-110.310;2023-12-20T05:48:40;9.10;;;1.87;;
41721;SDS011;27407;24.142;-110.310;2023-12-20T05:51:06;5.23;;;1.30;;
41721;SDS011;27407;24.142;-110.310;2023-12-20T07:09:52;40.23;;;5.50;;
41721;SDS011;27407;24.142;-110.310;2023-12-20T07:12:18;21.77;;;4.13;;
41721;SDS011;27407;24.142;-110.310;2023-12-20T07:14:45;24.00;;;4.13;;
41721;SDS011;27407;24.142;-110.310;2023-12-20T07:17:12;26.43;;;4.17;;
41721;SDS011;27407;24.142;-110.310;2023-12-20T07:19:40;17.63;;;2.60;;
41721;SDS011;27407;24.142;-110.310;2023-12-20T07:22:07;17.47;;;4.40;;
41721;SDS011;27407;24.142;-110.310;2023-12-20T07:24:34;15.33;;;3.37;;
41721;SDS011;27407;24.142;-110.310;2023-12-20T07:27:01;21.60;;;4.30;;
41721;SDS011;27407;24.142;-110.310;2023-12-20T07:29:28;24.83;;;4.30;;
41721;SDS011;27407;24.142;-110.310;2023-12-20T07:31:54;16.17;;;3.70;;
41721;SDS011;27407;24.142;-110.310;2023-12-20T07:34:21;23.03;;;3.20;;
41721;SDS011;27407;24.142;-110.310;2023-12-20T07:36:48;18.20;;;2.90;;
41721;SDS011;27407;24.142;-110.310;2023-12-20T07:39:14;17.13;;;2.40;;
41721;SDS011;27407;24.142;-110.310;2023-12-20T07:41:41;19.13;;;2.07;;
41721;SDS011;27407;24.142;-110.310;2023-12-20T07:44:07;11.40;;;2.40;;
41721;SDS011;27407;24.142;-110.310;2023-12-20T07:46:34;12.47;;;2.20;;
41721;SDS011;27407;24.142;-110.310;2023-12-20T07:49:01;14.70;;;2.20;;
41721;SDS011;27407;24.142;-110.310;2023-12-20T07:51:28;16.63;;;2.33;;
41721;SDS011;27407;24.142;-110.310;2023-12-20T08:10:28;12.83;;;2.17;;
41721;SDS011;27407;24.142;-110.310;2023-12-20T08:12:50;6.77;;;1.77;;
41721;SDS011;27407;24.142;-110.310;2023-12-20T08:15:17;7.03;;;1.57;;
41721;SDS011;27407;24.142;-110.310;2023-12-20T08:17:44;8.93;;;1.10;;
41721;SDS011;27407;24.142;-110.310;2023-12-20T08:20:10;9.27;;;1.93;;
41721;SDS011;27407;24.142;-110.310;2023-12-20T08:22:37;3.67;;;1.20;;
41721;SDS011;27407;24.142;-110.310;2023-12-20T08:25:04;8.87;;;1.30;;
41721;SDS011;27407;24.142;-110.310;2023-12-20T08:27:30;15.43;;;2.40;;
41721;SDS011;27407;24.142;-110.310;2023-12-20T08:29:57;12.43;;;1.83;;
41721;SDS011;27407;24.142;-110.310;2023-12-20T08:32:27;7.23;;;2.00;;
41721;SDS011;27407;24.142;-110.310;2023-12-20T08:34:54;17.97;;;2.10;;
41721;SDS011;27407;24.142;-110.310;2023-12-20T08:37:20;19.97;;;3.20;;
41721;SDS011;27407;24.142;-110.310;2023-12-20T08:39:47;24.67;;;4.13;;
41721;SDS011;27407;24.142;-110.310;2023-12-20T08:42:13;24.43;;;4.07;;
41721;SDS011;27407;24.142;-110.310;2023-12-20T08:44:40;22.63;;;3.97;;
41721;SDS011;27407;24.142;-110.310;2023-12-20T08:47:07;22.13;;;4.03;;
41721;SDS011;27407;24.142;-110.310;2023-12-20T08:49:33;23.13;;;3.23;;
41721;SDS011;27407;24.142;-110.310;2023-12-20T08:52:00;15.40;;;2.70;;
41721;SDS011;27407;24.142;-110.310;2023-12-20T08:54:26;12.53;;;2.20;;
41721;SDS011;27407;24.142;-110.310;2023-12-20T08:56:53;10.27;;;1.67;;
41721;SDS011;27407;24.142;-110.310;2023-12-20T08:59:19;14.47;;;2.20;;
41721;SDS011;27407;24.142;-110.310;2023-12-20T09:01:46;11.03;;;2.27;;
41721;SDS011;27407;24.142;-110.310;2023-12-20T09:04:13;9.73;;;2.13;;
41721;SDS011;27407;24.142;-110.310;2023-12-20T09:06:40;4.77;;;1.30;;
41721;SDS011;27407;24.142;-110.310;2023-12-20T09:09:07;11.47;;;1.23;;
41721;SDS011;27407;24.142;-110.310;2023-12-20T09:11:39;5.27;;;1.03;;
41721;SDS011;27407;24.142;-110.310;2023-12-20T09:14:05;11.93;;;1.40;;
41721;SDS011;27407;24.142;-110.310;2023-12-20T09:16:32;8.20;;;1.43;;
41721;SDS011;27407;24.142;-110.310;2023-12-20T09:18:59;5.17;;;1.23;;
41721;SDS011;27407;24.142;-110.310;2023-12-20T09:21:25;11.10;;;1.20;;
41721;SDS011;27407;24.142;-110.310;2023-12-20T09:23:52;2.43;;;1.03;;
41721;SDS011;27407;24.142;-110.310;2023-12-20T09:26:19;7.80;;;1.30;;
41721;SDS011;27407;24.142;-110.310;2023-12-20T09:28:46;8.03;;;1.27;;
41721;SDS011;27407;24.142;-110.310;2023-12-20T09:31:13;8.67;;;1.40;;
41721;SDS011;27407;24.142;-110.310;2023-12-20T09:33:39;6.57;;;1.20;;
41721;SDS011;27407;24.142;-110.310;2023-12-20T09:36:06;14.07;;;1.57;;
41721;SDS011;27407;24.142;-110.310;2023-12-20T09:38:33;7.20;;;1.20;;
41721;SDS011;27407;24.142;-110.310;2023-12-20T09:41:00;3.17;;;0.80;;
41721;SDS011;27407;24.142;-110.310;2023-12-20T09:43:29;7.93;;;1.30;;
41721;SDS011;27407;24.142;-110.310;2023-12-20T09:46:00;7.30;;;1.50;;
41721;SDS011;27407;24.142;-110.310;2023-12-20T09:48:28;2.20;;;1.00;;
41721;SDS011;27407;24.142;-110.310;2023-12-20T09:50:56;9.43;;;0.97;;
41721;SDS011;27407;24.142;-110.310;2023-12-20T09:53:23;8.90;;;1.20;;
41721;SDS011;27407;24.142;-110.310;2023-12-20T09:55:58;7.00;;;0.80;;
41721;SDS011;27407;24.142;-110.310;2023-12-20T09:58:27;3.73;;;0.93;;
41721;SDS011;27407;24.142;-110.310;2023-12-20T10:00:54;2.03;;;0.90;;
41721;SDS011;27407;24.142;-110.310;2023-12-20T10:03:23;4.47;;;0.93;;
41721;SDS011;27407;24.142;-110.310;2023-12-20T10:05:54;11.40;;;1.50;;
41721;SDS011;27407;24.142;-110.310;2023-12-20T10:08:24;4.00;;;1.00;;
41721;SDS011;27407;24.142;-110.310;2023-12-20T10:10:50;5.20;;;1.40;;
41721;SDS011;27407;24.142;-110.310;2023-12-20T10:13:17;5.50;;;1.00;;
41721;SDS011;27407;24.142;-110.310;2023-12-20T10:15:44;5.00;;;1.10;;
41721;SDS011;27407;24.142;-110.310;2023-12-20T10:18:12;5.40;;;1.10;;
41721;SDS011;27407;24.142;-110.310;2023-12-20T10:20:39;4.03;;;1.10;;
41721;SDS011;27407;24.142;-110.310;2023-12-20T10:23:08;6.40;;;1.23;;
41721;SDS011;27407;24.142;-110.310;2023-12-20T10:25:35;3.00;;;0.97;;
41721;SDS011;27407;24.142;-110.310;2023-12-20T10:28:09;4.90;;;1.13;;
41721;SDS011;27407;24.142;-110.310;2023-12-20T10:30:38;9.40;;;1.20;;
41721;SDS011;27407;24.142;-110.310;2023-12-20T10:33:05;7.93;;;1.37;;
41721;SDS011;27407;24.142;-110.310;2023-12-20T10:35:36;8.77;;;1.27;;
41721;SDS011;27407;24.142;-110.310;2023-12-20T10:38:06;4.83;;;1.37;;
41721;SDS011;27407;24.142;-110.310;2023-12-20T10:40:36;6.17;;;1.30;;
41721;SDS011;27407;24.142;-110.310;2023-12-20T10:43:03;9.77;;;1.53;;
41721;SDS011;27407;24.142;-110.310;2023-12-20T10:45:30;5.33;;;1.40;;
41721;SDS011;27407;24.142;-110.310;2023-12-20T10:47:58;5.63;;;1.40;;
41721;SDS011;27407;24.142;-110.310;2023-12-20T10:50:26;5.83;;;1.27;;
41721;SDS011;27407;24.142;-110.310;2023-12-20T10:52:54;5.37;;;1.27;;
41721;SDS011;27407;24.142;-110.310;2023-12-20T10:55:27;7.60;;;0.93;;
41721;SDS011;27407;24.142;-110.310;2023-12-20T10:58:00;11.93;;;1.50;;
41721;SDS011;27407;24.142;-110.310;2023-12-20T11:00:28;10.60;;;1.63;;
41721;SDS011;27407;24.142;-110.310;2023-12-20T11:02:57;4.43;;;1.10;;
41721;SDS011;27407;24.142;-110.310;2023-12-20T11:08:02;12.00;;;1.30;;
41721;SDS011;27407;24.142;-110.310;2023-12-20T11:10:42;8.27;;;1.43;;
41721;SDS011;27407;24.142;-110.310;2023-12-20T11:13:23;6.63;;;1.20;;
41721;SDS011;27407;24.142;-110.310;2023-12-20T11:15:56;8.60;;;1.70;;
41721;SDS011;27407;24.142;-110.310;2023-12-20T11:18:28;9.77;;;1.20;;
41721;SDS011;27407;24.142;-110.310;2023-12-20T11:21:02;7.97;;;1.20;;
41721;SDS011;27407;24.142;-110.310;2023-12-20T11:23:31;5.57;;;1.60;;
41721;SDS011;27407;24.142;-110.310;2023-12-20T11:26:02;5.23;;;1.37;;
41721;SDS011;27407;24.142;-110.310;2023-12-20T11:28:29;6.47;;;1.33;;
41721;SDS011;27407;24.142;-110.310;2023-12-20T11:30:58;8.60;;;1.30;;
41721;SDS011;27407;24.142;-110.310;2023-12-20T11:33:45;3.40;;;1.10;;
41721;SDS011;27407;24.142;-110.310;2023-12-20T11:36:14;7.23;;;1.53;;
41721;SDS011;27407;24.142;-110.310;2023-12-20T11:38:56;9.27;;;1.27;;
41721;SDS011;27407;24.142;-110.310;2023-12-20T11:41:25;7.53;;;1.50;;
41721;SDS011;27407;24.142;-110.310;2023-12-20T11:43:53;9.73;;;1.63;;
41721;SDS011;27407;24.142;-110.310;2023-12-20T11:46:20;8.57;;;1.50;;
41721;SDS011;27407;24.142;-110.310;2023-12-20T11:48:47;6.03;;;1.30;;
41721;SDS011;27407;24.142;-110.310;2023-12-20T11:51:14;10.43;;;1.57;;
41721;SDS011;27407;24.142;-110.310;2023-12-20T11:53:41;5.13;;;1.63;;
41721;SDS011;27407;24.142;-110.310;2023-12-20T11:56:08;8.43;;;1.27;;
41721;SDS011;27407;24.142;-110.310;2023-12-20T11:58:35;9.30;;;1.53;;
41721;SDS011;27407;24.142;-110.310;2023-12-20T12:01:02;8.10;;;1.33;;
41721;SDS011;27407;24.142;-110.310;2023-12-20T12:03:32;10.27;;;1.40;;
41721;SDS011;27407;24.142;-110.310;2023-12-20T12:05:59;3.37;;;1.00;;
41721;SDS011;27407;24.142;-110.310;2023-12-20T12:08:26;8.53;;;1.30;;
41721;SDS011;27407;24.142;-110.310;2023-12-20T12:10:53;7.13;;;1.20;;
41721;SDS011;27407;24.142;-110.310;2023-12-20T12:13:19;10.83;;;1.23;;
41721;SDS011;27407;24.142;-110.310;2023-12-20T12:15:47;4.67;;;1.13;;
41721;SDS011;27407;24.142;-110.310;2023-12-20T12:18:18;6.80;;;1.50;;
41721;SDS011;27407;24.142;-110.310;2023-12-20T12:20:44;10.90;;;1.67;;
41721;SDS011;27407;24.142;-110.310;2023-12-20T12:23:11;4.80;;;1.20;;
41721;SDS011;27407;24.142;-110.310;2023-12-20T12:25:38;3.93;;;0.87;;
41721;SDS011;27407;24.142;-110.310;2023-12-20T12:28:05;6.43;;;1.30;;
41721;SDS011;27407;24.142;-110.310;2023-12-20T12:30:32;4.23;;;1.13;;
41721;SDS011;27407;24.142;-110.310;2023-12-20T12:32:59;7.70;;;1.40;;
41721;SDS011;27407;24.142;-110.310;2023-12-20T12:35:25;5.57;;;0.90;;
41721;SDS011;27407;24.142;-110.310;2023-12-20T12:37:52;8.10;;;1.40;;
41721;SDS011;27407;24.142;-110.310;2023-12-20T12:40:18;4.93;;;1.53;;
41721;SDS011;27407;24.142;-110.310;2023-12-20T12:42:45;6.97;;;1.40;;
41721;SDS011;27407;24.142;-110.310;2023-12-20T12:45:13;10.93;;;1.50;;
41721;SDS011;27407;24.142;-110.310;2023-12-20T12:47:40;11.63;;;1.30;;
41721;SDS011;27407;24.142;-110.310;2023-12-20T12:50:07;15.23;;;1.87;;
41721;SDS011;27407;24.142;-110.310;2023-12-20T12:52:34;15.57;;;1.87;;
41721;SDS011;27407;24.142;-110.310;2023-12-20T12:55:01;14.67;;;1.67;;
41721;SDS011;27407;24.142;-110.310;2023-12-20T12:57:30;8.87;;;1.50;;
41721;SDS011;27407;24.142;-110.310;2023-12-20T12:59:56;11.33;;;1.10;;
41721;SDS011;27407;24.142;-110.310;2023-12-20T13:02:23;9.87;;;1.67;;
41721;SDS011;27407;24.142;-110.310;2023-12-20T13:04:50;13.83;;;1.70;;
41721;SDS011;27407;24.142;-110.310;2023-12-20T13:07:17;16.23;;;1.90;;
41721;SDS011;27407;24.142;-110.310;2023-12-20T13:09:43;5.87;;;1.53;;
41721;SDS011;27407;24.142;-110.310;2023-12-20T13:12:10;6.80;;;1.37;;
41721;SDS011;27407;24.142;-110.310;2023-12-20T13:14:37;10.77;;;1.20;;
41721;SDS011;27407;24.142;-110.310;2023-12-20T13:17:03;15.73;;;1.43;;
41721;SDS011;27407;24.142;-110.310;2023-12-20T13:19:31;9.73;;;1.57;;
41721;SDS011;27407;24.142;-110.310;2023-12-20T13:21:58;6.27;;;1.47;;
41721;SDS011;27407;24.142;-110.310;2023-12-20T13:24:24;9.73;;;1.70;;
41721;SDS011;27407;24.142;-110.310;2023-12-20T13:26:51;12.20;;;1.60;;
41721;SDS011;27407;24.142;-110.310;2023-12-20T13:29:18;19.03;;;1.80;;
41721;SDS011;27407;24.142;-110.310;2023-12-20T13:31:44;15.83;;;1.60;;
41721;SDS011;27407;24.142;-110.310;2023-12-20T13:34:11;12.47;;;1.50;;
41721;SDS011;27407;24.142;-110.310;2023-12-20T13:36:38;17.23;;;1.50;;
41721;SDS011;27407;24.142;-110.310;2023-12-20T13:39:04;10.27;;;1.20;;
41721;SDS011;27407;24.142;-110.310;2023-12-20T13:41:32;11.10;;;1.20;;
41721;SDS011;27407;24.142;-110.310;2023-12-20T13:43:59;7.47;;;1.13;;
41721;SDS011;27407;24.142;-110.310;2023-12-20T13:46:28;9.43;;;1.20;;
41721;SDS011;27407;24.142;-110.310;2023-12-20T13:48:55;17.77;;;2.23;;
41721;SDS011;27407;24.142;-110.310;2023-12-20T13:51:21;19.43;;;1.33;;
41721;SDS011;27407;24.142;-110.310;2023-12-20T13:53:48;11.03;;;1.97;;
41721;SDS011;27407;24.142;-110.310;2023-12-20T13:56:15;18.07;;;3.00;;
41721;SDS011;27407;24.142;-110.310;2023-12-20T13:58:42;22.80;;;2.37;;
41721;SDS011;27407;24.142;-110.310;2023-12-20T14:01:09;23.20;;;1.57;;
41721;SDS011;27407;24.142;-110.310;2023-12-20T14:03:37;8.77;;;1.43;;
41721;SDS011;27407;24.142;-110.310;2023-12-20T14:06:03;11.50;;;1.30;;
41721;SDS011;27407;24.142;-110.310;2023-12-20T14:08:30;9.70;;;1.10;;
41721;SDS011;27407;24.142;-110.310;2023-12-20T14:10:57;7.53;;;1.30;;
41721;SDS011;27407;24.142;-110.310;2023-12-20T14:13:23;18.80;;;1.90;;
41721;SDS011;27407;24.142;-110.310;2023-12-20T14:15:50;21.10;;;2.00;;
41721;SDS011;27407;24.142;-110.310;2023-12-20T14:18:16;18.10;;;1.40;;
41721;SDS011;27407;24.142;-110.310;2023-12-20T14:20:43;9.43;;;1.20;;
41721;SDS011;27407;24.142;-110.310;2023-12-20T14:23:12;9.57;;;1.53;;
41721;SDS011;27407;24.142;-110.310;2023-12-20T14:25:41;16.80;;;2.87;;
41721;SDS011;27407;24.142;-110.310;2023-12-20T14:28:08;16.13;;;4.73;;
41721;SDS011;27407;24.142;-110.310;2023-12-20T14:30:35;22.03;;;6.13;;
41721;SDS011;27407;24.142;-110.310;2023-12-20T14:33:03;19.10;;;2.53;;
41721;SDS011;27407;24.142;-110.310;2023-12-20T14:35:30;17.07;;;2.10;;
41721;SDS011;27407;24.142;-110.310;2023-12-20T14:37:58;11.67;;;2.50;;
41721;SDS011;27407;24.142;-110.310;2023-12-20T14:40:25;18.83;;;1.93;;
41721;SDS011;27407;24.142;-110.310;2023-12-20T14:42:51;11.33;;;1.57;;
41721;SDS011;27407;24.142;-110.310;2023-12-20T14:45:18;12.17;;;3.40;;
41721;SDS011;27407;24.142;-110.310;2023-12-20T14:47:45;24.50;;;4.87;;
41721;SDS011;27407;24.142;-110.310;2023-12-20T14:50:13;26.70;;;5.23;;
41721;SDS011;27407;24.142;-110.310;2023-12-20T14:52:44;85.47;;;8.07;;
41721;SDS011;27407;24.142;-110.310;2023-12-20T15:30:22;21.23;;;3.00;;
41721;SDS011;27407;24.142;-110.310;2023-12-20T15:32:50;23.67;;;2.10;;
41721;SDS011;27407;24.142;-110.310;2023-12-20T15:35:17;16.20;;;2.67;;
41721;SDS011;27407;24.142;-110.310;2023-12-20T15:37:43;41.27;;;3.73;;
41721;SDS011;27407;24.142;-110.310;2023-12-20T15:40:10;23.87;;;3.63;;
41721;SDS011;27407;24.142;-110.310;2023-12-20T15:42:38;21.10;;;4.85;;
41721;SDS011;27407;24.142;-110.310;2023-12-20T15:45:05;22.30;;;2.75;;
41721;SDS011;27407;24.142;-110.310;2023-12-20T15:47:36;24.75;;;2.97;;
41721;SDS011;27407;24.142;-110.310;2023-12-20T15:50:02;11.82;;;2.85;;
41721;SDS011;27407;24.142;-110.310;2023-12-20T15:52:29;23.77;;;4.47;;
41721;SDS011;27407;24.142;-110.310;2023-12-20T15:57:31;20.77;;;2.95;;
41721;SDS011;27407;24.142;-110.310;2023-12-20T15:59:59;47.30;;;5.75;;
41721;SDS011;27407;24.142;-110.310;2023-12-20T16:02:26;26.20;;;4.47;;
41721;SDS011;27407;24.142;-110.310;2023-12-20T16:04:52;19.25;;;5.50;;
41721;SDS011;27407;24.142;-110.310;2023-12-20T16:07:19;20.85;;;4.75;;
41721;SDS011;27407;24.142;-110.310;2023-12-20T16:09:46;28.85;;;3.85;;
41721;SDS011;27407;24.142;-110.310;2023-12-20T16:12:12;24.90;;;3.58;;
41721;SDS011;27407;24.142;-110.310;2023-12-20T16:14:39;40.15;;;5.22;;
41721;SDS011;27407;24.142;-110.310;2023-12-20T16:17:05;36.22;;;8.18;;
41721;SDS011;27407;24.142;-110.310;2023-12-20T16:19:32;18.15;;;6.57;;
41721;SDS011;27407;24.142;-110.310;2023-12-20T16:21:59;39.15;;;5.68;;
41721;SDS011;27407;24.142;-110.310;2023-12-20T16:24:25;77.85;;;7.18;;
41721;SDS011;27407;24.142;-110.310;2023-12-20T16:26:52;14.05;;;2.35;;
41721;SDS011;27407;24.142;-110.310;2023-12-20T16:29:19;31.05;;;4.10;;
41721;SDS011;27407;24.142;-110.310;2023-12-20T16:31:45;39.03;;;4.63;;
41721;SDS011;27407;24.142;-110.310;2023-12-20T16:34:12;26.13;;;7.05;;
41721;SDS011;27407;24.142;-110.310;2023-12-20T16:36:51;26.42;;;3.63;;
41721;SDS011;27407;24.142;-110.310;2023-12-20T16:39:22;23.60;;;2.47;;
41721;SDS011;27407;24.142;-110.310;2023-12-20T16:41:49;41.03;;;3.70;;
41721;SDS011;27407;24.142;-110.310;2023-12-20T16:44:16;33.33;;;3.72;;